createdAt,value
2023-03-02T00:00:33.204Z,7.30
2023-03-02T00:03:00.687Z,8.25
2023-03-02T00:05:28.171Z,7.38
2023-03-02T00:07:55.387Z,7.88
2023-03-02T00:10:22.240Z,8.77
2023-03-02T00:12:49.096Z,8.65
2023-03-02T00:15:16.052Z,9.57
2023-03-02T00:17:42.998Z,9.95
2023-03-02T00:20:10.878Z,10.38
2023-03-02T00:22:45.115Z,9.73
2023-03-02T00:25:12.865Z,11.02
2023-03-02T00:27:39.641Z,11.25
2023-03-02T00:30:07.449Z,10.80
2023-03-02T00:32:34.457Z,11.57
2023-03-02T00:35:01.376Z,11.80
2023-03-02T00:37:29.047Z,11.82
2023-03-02T00:39:55.853Z,13.23
2023-03-02T00:42:22.826Z,13.65
2023-03-02T00:44:51.894Z,13.35
2023-03-02T00:47:18.674Z,14.18
2023-03-02T00:49:49.054Z,14.43
2023-03-02T00:52:16.714Z,14.60
2023-03-02T00:54:43.713Z,14.88
2023-03-02T00:57:10.864Z,14.80
2023-03-02T00:59:40.951Z,16.20
2023-03-02T01:02:21.784Z,15.40
2023-03-02T01:04:49.664Z,16.42
2023-03-02T01:07:17.811Z,17.40
2023-03-02T01:09:45.001Z,17.52
2023-03-02T01:12:12.204Z,18.60
2023-03-02T01:14:40.400Z,18.70
2023-03-02T01:17:07.828Z,18.35
2023-03-02T01:19:35.578Z,19.27
2023-03-02T01:22:02.972Z,20.40
2023-03-02T01:24:29.915Z,20.52
2023-03-02T01:26:56.870Z,20.60
2023-03-02T01:29:23.632Z,21.30
2023-03-02T01:31:50.569Z,21.30
2023-03-02T01:34:17.364Z,20.70
2023-03-02T01:36:47.522Z,23.00
2023-03-02T01:39:17.334Z,21.70
2023-03-02T01:41:45.197Z,21.50
2023-03-02T01:44:31.485Z,22.90
2023-03-02T01:46:58.457Z,23.57
2023-03-02T01:49:26.084Z,22.80
2023-03-02T01:51:57.518Z,23.73
2023-03-02T01:54:25.335Z,24.63
2023-03-02T01:57:00.116Z,22.30
2023-03-02T01:59:27.668Z,24.67
2023-03-02T02:01:56.621Z,26.35
2023-03-02T02:04:25.812Z,23.15
2023-03-02T02:07:03.507Z,25.17
2023-03-02T02:09:31.970Z,24.52
2023-03-02T02:11:59.021Z,24.02
2023-03-02T02:14:26.362Z,23.90
2023-03-02T02:16:53.299Z,21.67
2023-03-02T02:19:23.049Z,26.25
2023-03-02T02:21:51.013Z,26.13
2023-03-02T02:24:36.361Z,25.38
2023-03-02T02:27:03.523Z,23.83
2023-03-02T02:29:33.175Z,25.70
2023-03-02T02:32:00.273Z,23.70
2023-03-02T02:34:35.763Z,25.55
2023-03-02T02:37:07.539Z,24.70
2023-03-02T02:39:37.593Z,25.50
2023-03-02T02:42:28.651Z,24.65
2023-03-02T02:44:57.079Z,26.85
2023-03-02T02:47:24.292Z,24.88
2023-03-02T02:49:52.701Z,25.13
2023-03-02T02:52:21.247Z,27.33
2023-03-02T02:54:52.220Z,25.83
2023-03-02T02:57:20.124Z,25.35
2023-03-02T02:59:58.346Z,24.60
2023-03-02T03:02:26.729Z,27.73
2023-03-02T03:05:02.839Z,26.85
2023-03-02T03:07:32.373Z,25.58
2023-03-02T03:10:07.516Z,26.60
2023-03-02T03:12:34.909Z,25.17
2023-03-02T03:15:02.895Z,25.15
2023-03-02T03:17:30.323Z,26.48
2023-03-02T03:20:03.459Z,24.33
2023-03-02T03:22:30.414Z,27.73
2023-03-02T03:24:58.632Z,26.00
2023-03-02T03:27:25.414Z,27.48
2023-03-02T03:29:52.244Z,28.25
2023-03-02T03:32:21.047Z,26.63
2023-03-02T03:34:50.486Z,26.40
2023-03-02T03:37:25.313Z,25.67
2023-03-02T03:39:52.525Z,26.67
2023-03-02T03:42:20.271Z,26.15
2023-03-02T03:44:47.448Z,28.48
2023-03-02T03:47:14.655Z,25.27
2023-03-02T03:49:41.874Z,25.58
2023-03-02T03:52:09.595Z,25.88
2023-03-02T03:54:36.436Z,25.40
2023-03-02T03:57:03.394Z,26.02
2023-03-02T03:59:30.220Z,26.67
2023-03-02T04:02:01.085Z,21.10
2023-03-02T04:04:33.940Z,22.80
2023-03-02T04:07:03.966Z,25.20
2023-03-02T04:09:38.132Z,25.17
2023-03-02T04:12:07.880Z,23.13
2023-03-02T04:14:35.355Z,23.38
2023-03-02T04:17:05.579Z,24.98
2023-03-02T04:19:35.601Z,23.08
2023-03-02T04:22:04.225Z,23.25
2023-03-02T04:24:32.625Z,24.65
2023-03-02T04:27:02.148Z,23.17
2023-03-02T04:29:29.161Z,24.58
2023-03-02T04:31:56.270Z,21.80
2023-03-02T04:34:25.640Z,22.88
2023-03-02T04:36:53.476Z,22.35
2023-03-02T04:39:20.629Z,23.08
2023-03-02T04:41:50.620Z,21.75
2023-03-02T04:44:18.312Z,21.75
2023-03-02T04:46:45.946Z,23.95
2023-03-02T04:49:13.883Z,23.83
2023-03-02T04:51:43.666Z,24.35
2023-03-02T04:54:15.351Z,22.25
2023-03-02T04:56:42.114Z,19.23
2023-03-02T04:59:09.107Z,22.25
2023-03-02T05:01:36.714Z,24.38
2023-03-02T05:04:04.110Z,22.88
2023-03-02T05:06:31.246Z,22.30
2023-03-02T05:09:00.228Z,21.50
2023-03-02T05:11:27.065Z,22.27
2023-03-02T05:13:57.163Z,22.30
2023-03-02T05:16:24.824Z,21.05
2023-03-02T05:18:51.701Z,26.05
2023-03-02T05:21:19.140Z,21.77
2023-03-02T05:23:46.350Z,22.05
2023-03-02T05:26:13.948Z,21.05
2023-03-02T05:28:41.435Z,22.88
2023-03-02T05:31:08.673Z,23.50
2023-03-02T05:33:35.587Z,21.50
2023-03-02T05:36:02.533Z,22.38
2023-03-02T05:38:31.643Z,21.80
2023-03-02T05:40:58.427Z,22.15
2023-03-02T05:43:25.276Z,22.83
2023-03-02T05:45:52.174Z,22.17
2023-03-02T05:48:19.253Z,21.45
2023-03-02T05:50:46.374Z,22.17
2023-03-02T05:53:13.295Z,23.67
2023-03-02T05:55:40.303Z,21.67
2023-03-02T05:58:09.034Z,21.42
2023-03-02T06:00:36.192Z,21.00
2023-03-02T06:03:03.199Z,22.90
2023-03-02T06:05:30.021Z,21.95
2023-03-02T06:07:56.817Z,21.38
2023-03-02T06:10:23.922Z,20.30
2023-03-02T06:12:50.950Z,19.27
2023-03-02T06:15:18.107Z,20.65
2023-03-02T06:17:48.084Z,19.50
2023-03-02T06:20:15.373Z,22.17
2023-03-02T06:22:45.209Z,19.90
2023-03-02T06:25:13.191Z,19.98
2023-03-02T06:27:40.797Z,23.08
2023-03-02T06:30:09.610Z,19.73
2023-03-02T06:32:36.847Z,20.55
2023-03-02T06:35:04.598Z,20.35
2023-03-02T06:37:31.685Z,19.45
2023-03-02T06:39:58.784Z,19.83
2023-03-02T06:42:26.180Z,17.30
2023-03-02T06:44:54.994Z,23.25
2023-03-02T06:47:22.348Z,20.25
2023-03-02T06:49:49.324Z,19.88
2023-03-02T06:52:16.681Z,23.45
2023-03-02T06:54:43.629Z,17.13
2023-03-02T06:57:10.626Z,20.40
2023-03-02T06:59:37.406Z,19.95
2023-03-02T07:02:06.797Z,17.42
2023-03-02T07:04:33.624Z,21.73
2023-03-02T07:07:00.612Z,20.02
2023-03-02T07:09:30.205Z,22.63
2023-03-02T07:11:57.220Z,21.42
2023-03-02T07:14:24.159Z,16.23
2023-03-02T07:16:50.974Z,21.08
2023-03-02T07:19:17.764Z,21.50
2023-03-02T07:21:44.678Z,21.25
2023-03-02T07:24:11.460Z,20.10
2023-03-02T07:26:38.344Z,21.10
2023-03-02T07:29:05.364Z,22.40
2023-03-02T07:31:32.722Z,22.42
2023-03-02T07:33:59.637Z,20.05
2023-03-02T07:36:26.688Z,21.60
2023-03-02T07:38:54.809Z,17.23
2023-03-02T07:41:22.806Z,20.77
2023-03-02T07:43:50.031Z,20.70
2023-03-02T07:46:16.912Z,20.83
2023-03-02T07:48:43.716Z,19.17
2023-03-02T07:51:10.659Z,19.83
2023-03-02T07:53:37.719Z,17.98
2023-03-02T07:56:08.561Z,20.00
2023-03-02T07:58:35.746Z,18.13
2023-03-02T08:01:02.768Z,18.52
2023-03-02T08:03:29.533Z,17.88
2023-03-02T08:05:56.440Z,17.02
2023-03-02T08:08:23.271Z,17.10
2023-03-02T08:10:50.026Z,18.25
2023-03-02T08:13:16.816Z,18.52
2023-03-02T08:15:43.781Z,17.52
2023-03-02T08:18:10.712Z,17.80
2023-03-02T08:20:37.724Z,19.23
2023-03-02T08:23:04.494Z,18.60
2023-03-02T08:25:31.323Z,18.80
2023-03-02T08:27:58.251Z,20.88
2023-03-02T08:30:25.440Z,18.80
2023-03-02T08:32:52.569Z,18.98
2023-03-02T08:35:19.706Z,18.63
2023-03-02T08:37:46.483Z,20.05
2023-03-02T08:40:13.289Z,18.95
2023-03-02T08:42:40.379Z,17.85
2023-03-02T08:45:07.534Z,17.77
2023-03-02T08:47:34.311Z,17.10
2023-03-02T08:50:01.171Z,16.05
2023-03-02T08:52:27.934Z,17.45
2023-03-02T08:54:54.662Z,16.35
2023-03-02T08:57:21.529Z,15.65
2023-03-02T08:59:48.280Z,16.08
2023-03-02T09:02:15.104Z,16.00
2023-03-02T09:04:42.270Z,16.88
2023-03-02T09:07:09.394Z,16.25
2023-03-02T09:09:36.494Z,17.13
2023-03-02T09:12:03.344Z,16.67
2023-03-02T09:14:30.147Z,17.08
2023-03-02T09:16:57.099Z,16.08
2023-03-02T09:19:23.949Z,16.73
2023-03-02T09:21:51.258Z,16.75
2023-03-02T09:24:18.411Z,16.33
2023-03-02T09:26:45.154Z,17.88
2023-03-02T09:29:12.549Z,16.75
2023-03-02T09:31:39.515Z,16.30
2023-03-02T09:34:06.492Z,17.48
2023-03-02T09:36:34.565Z,16.70
2023-03-02T09:39:01.483Z,17.45
2023-03-02T09:41:48.673Z,18.63
2023-03-02T09:44:27.393Z,17.00
2023-03-02T09:46:56.282Z,17.63
2023-03-02T09:49:23.167Z,16.52
2023-03-02T09:52:11.736Z,17.00
2023-03-02T09:54:40.026Z,17.45
2023-03-02T09:57:18.950Z,17.52
2023-03-02T09:59:48.533Z,17.08
2023-03-02T10:02:15.404Z,16.38
2023-03-02T10:04:47.489Z,17.65
2023-03-02T10:07:16.334Z,16.70
2023-03-02T10:09:43.348Z,17.65
2023-03-02T10:12:22.282Z,17.13
2023-03-02T10:14:56.522Z,16.13
2023-03-02T10:17:35.159Z,16.50
2023-03-02T10:20:24.781Z,16.20
2023-03-02T10:22:54.607Z,16.55
2023-03-02T10:25:48.763Z,16.45
2023-03-02T10:28:22.985Z,15.65
2023-03-02T10:30:53.797Z,15.95
2023-03-02T10:33:21.501Z,16.48
2023-03-02T10:35:50.923Z,15.52
2023-03-02T10:38:24.665Z,15.63
2023-03-02T10:40:59.894Z,15.13
2023-03-02T10:43:36.097Z,16.35
2023-03-02T10:46:05.016Z,15.80
2023-03-02T10:48:31.869Z,15.95
2023-03-02T10:50:59.160Z,15.55
2023-03-02T10:53:25.961Z,15.63
2023-03-02T10:55:53.503Z,15.35
2023-03-02T10:58:26.594Z,15.82
2023-03-02T11:01:16.325Z,15.27
2023-03-02T11:03:43.187Z,15.77
2023-03-02T11:06:16.414Z,15.25
2023-03-02T11:08:43.225Z,14.18
2023-03-02T11:11:23.710Z,14.13
2023-03-02T11:13:50.442Z,13.20
2023-03-02T11:16:17.218Z,14.23
2023-03-02T11:18:50.456Z,14.30
2023-03-02T11:21:20.481Z,14.52
2023-03-02T11:24:02.548Z,14.35
2023-03-02T11:26:33.923Z,14.18
2023-03-02T11:29:03.883Z,14.25
2023-03-02T11:31:56.973Z,13.50
2023-03-02T11:34:30.522Z,14.13
2023-03-02T11:37:04.883Z,12.90
2023-03-02T11:39:56.055Z,13.68
2023-03-02T11:42:25.900Z,15.18
2023-03-02T11:44:52.793Z,14.63
2023-03-02T11:47:20.794Z,14.27
2023-03-02T11:49:55.106Z,12.95
2023-03-02T11:52:23.080Z,12.63
2023-03-02T11:54:54.096Z,12.52
2023-03-02T11:57:50.135Z,12.82
2023-03-02T12:00:32.127Z,12.40
2023-03-02T12:03:08.166Z,12.57
2023-03-02T12:05:36.776Z,12.23
2023-03-02T12:08:08.396Z,11.18
2023-03-02T12:10:41.079Z,11.32
2023-03-02T12:13:07.888Z,12.48
2023-03-02T12:15:37.240Z,11.82
2023-03-02T12:18:15.464Z,11.70
2023-03-02T12:20:43.124Z,12.02
2023-03-02T12:23:21.908Z,10.57
2023-03-02T12:25:51.581Z,11.38
2023-03-02T12:28:29.345Z,10.70
2023-03-02T12:30:57.604Z,10.48
2023-03-02T12:33:24.386Z,9.82
2023-03-02T12:36:02.986Z,9.25
2023-03-02T12:38:35.033Z,9.45
2023-03-02T12:41:08.272Z,10.05
2023-03-02T12:43:36.071Z,10.23
2023-03-02T12:46:21.977Z,10.80
2023-03-02T12:49:09.087Z,10.38
2023-03-02T12:51:45.858Z,11.05
2023-03-02T12:54:14.634Z,10.00
2023-03-02T12:56:42.563Z,10.05
2023-03-02T12:59:21.005Z,10.15
2023-03-02T13:01:47.849Z,9.45
2023-03-02T13:04:24.816Z,10.27
2023-03-02T13:06:52.766Z,10.60
2023-03-02T13:09:20.457Z,9.82
2023-03-02T13:11:48.875Z,9.55
2023-03-02T13:14:26.064Z,9.65
2023-03-02T13:16:54.709Z,9.52
2023-03-02T13:19:22.082Z,9.55
2023-03-02T13:21:48.942Z,10.48
2023-03-02T13:24:34.612Z,9.50
2023-03-02T13:27:06.127Z,10.35
2023-03-02T13:29:33.137Z,10.20
2023-03-02T13:32:20.263Z,9.38
2023-03-02T13:34:58.044Z,9.25
2023-03-02T13:37:34.353Z,9.13
2023-03-02T13:40:02.049Z,7.85
2023-03-02T13:42:34.417Z,8.65
2023-03-02T13:45:30.894Z,8.70
2023-03-02T13:47:58.785Z,8.23
2023-03-02T13:50:29.423Z,8.38
2023-03-02T13:53:02.536Z,8.75
2023-03-02T13:55:30.010Z,7.95
2023-03-02T13:57:57.361Z,7.28
2023-03-02T14:00:42.502Z,7.60
2023-03-02T14:03:21.262Z,7.73
2023-03-02T14:05:48.196Z,7.88
2023-03-02T14:08:14.973Z,7.18
2023-03-02T14:10:42.474Z,7.35
2023-03-02T14:13:18.056Z,7.70
2023-03-02T14:15:50.155Z,7.97
2023-03-02T14:18:35.822Z,7.40
2023-03-02T14:21:02.638Z,7.38
2023-03-02T14:23:29.429Z,7.50
2023-03-02T14:25:56.813Z,7.32
2023-03-02T14:28:29.720Z,7.32
2023-03-02T14:30:57.727Z,6.85
2023-03-02T14:33:24.854Z,7.15
2023-03-02T14:35:53.116Z,6.68
2023-03-02T14:38:21.179Z,7.25
2023-03-02T14:40:48.063Z,7.07
2023-03-02T14:43:15.036Z,7.18
2023-03-02T14:45:42.120Z,6.68
2023-03-02T14:48:09.285Z,6.72
2023-03-02T14:50:38.837Z,6.45
2023-03-02T14:53:07.725Z,5.82
2023-03-02T14:55:36.031Z,6.03
2023-03-02T14:58:04.426Z,5.85
2023-03-02T15:00:31.628Z,6.60
2023-03-02T15:02:59.009Z,6.07
2023-03-02T15:05:27.112Z,5.93
2023-03-02T15:07:58.808Z,5.15
2023-03-02T15:10:28.881Z,5.88
2023-03-02T15:12:55.763Z,6.10
2023-03-02T15:15:23.065Z,6.53
2023-03-02T15:17:57.054Z,8.75
2023-03-02T15:20:24.269Z,9.77
2023-03-02T15:22:51.298Z,9.75
2023-03-02T15:25:18.165Z,10.02
2023-03-02T15:27:44.964Z,10.45
2023-03-02T15:30:12.453Z,9.57
2023-03-02T15:32:39.566Z,10.25
2023-03-02T15:35:06.677Z,10.45
2023-03-02T15:37:33.434Z,9.93
2023-03-02T15:40:00.148Z,10.55
2023-03-02T15:42:27.080Z,9.60
2023-03-02T15:44:53.855Z,8.98
2023-03-02T15:47:20.625Z,9.30
2023-03-02T15:49:47.321Z,9.75
2023-03-02T15:52:14.467Z,9.50
2023-03-02T15:54:41.364Z,9.88
2023-03-02T15:57:10.444Z,9.35
2023-03-02T15:59:37.408Z,9.57
2023-03-02T16:02:04.345Z,9.80
2023-03-02T16:04:32.214Z,10.23
2023-03-02T16:06:59.580Z,8.43
2023-03-02T16:09:28.855Z,8.93
2023-03-02T16:11:56.244Z,9.77
2023-03-02T16:14:23.110Z,9.43
2023-03-02T16:16:50.057Z,9.15
2023-03-02T16:19:19.117Z,8.45
2023-03-02T16:21:46.469Z,8.70
2023-03-02T16:24:13.907Z,8.77
2023-03-02T16:26:40.779Z,8.65
2023-03-02T16:29:10.855Z,9.57
2023-03-02T16:31:39.737Z,9.98
2023-03-02T16:34:08.781Z,9.52
2023-03-02T16:36:37.100Z,10.13
2023-03-02T16:39:04.080Z,9.85
2023-03-02T16:41:31.052Z,10.07
2023-03-02T16:43:58.567Z,10.35
2023-03-02T16:46:26.782Z,10.45
2023-03-02T16:48:54.141Z,9.52
2023-03-02T16:51:21.151Z,10.95
2023-03-02T16:53:48.179Z,9.60
2023-03-02T16:56:15.592Z,9.98
2023-03-02T16:58:42.773Z,10.70
2023-03-02T17:01:11.138Z,11.00
2023-03-02T17:03:37.890Z,10.77
2023-03-02T17:06:09.524Z,11.40
2023-03-02T17:08:36.641Z,11.07
2023-03-02T17:11:03.901Z,11.90
2023-03-02T17:13:30.800Z,12.45
2023-03-02T17:15:58.059Z,11.70
2023-03-02T17:18:27.348Z,12.30
2023-03-02T17:20:55.411Z,12.85
2023-03-02T17:23:22.249Z,13.30
2023-03-02T17:25:49.185Z,12.95
2023-03-02T17:28:16.809Z,13.63
2023-03-02T17:30:44.217Z,13.75
2023-03-02T17:33:11.243Z,13.85
2023-03-02T17:35:38.178Z,14.57
2023-03-02T17:38:05.116Z,14.40
2023-03-02T17:40:31.960Z,13.30
2023-03-02T17:42:58.843Z,12.18
2023-03-02T17:45:26.359Z,12.77
2023-03-02T17:47:53.964Z,11.98
2023-03-02T17:50:21.127Z,11.93
2023-03-02T17:52:48.494Z,13.15
2023-03-02T17:55:15.783Z,12.52
2023-03-02T17:57:42.821Z,12.85
2023-03-02T18:00:13.475Z,13.75
2023-03-02T18:02:40.934Z,12.02
2023-03-02T18:05:10.295Z,12.77
2023-03-02T18:07:37.464Z,13.25
2023-03-02T18:10:04.527Z,13.75
2023-03-02T18:12:31.547Z,14.77
2023-03-02T18:14:58.315Z,12.27
2023-03-02T18:17:25.234Z,13.63
2023-03-02T18:19:52.337Z,13.68
2023-03-02T18:22:19.783Z,13.65
2023-03-02T18:24:47.553Z,13.52
2023-03-02T18:27:14.545Z,12.85
2023-03-02T18:29:41.527Z,13.75
2023-03-02T18:32:09.559Z,12.88
2023-03-02T18:34:36.556Z,13.32
2023-03-02T18:37:03.616Z,14.52
2023-03-02T18:39:30.383Z,13.75
2023-03-02T18:41:57.299Z,13.63
2023-03-02T18:44:28.024Z,13.30
2023-03-02T18:46:55.253Z,12.30
2023-03-02T18:49:22.376Z,12.85
2023-03-02T18:51:51.395Z,13.38
2023-03-02T18:54:18.672Z,11.60
2023-03-02T18:56:45.489Z,11.52
2023-03-02T18:59:13.254Z,11.70
2023-03-02T19:01:40.817Z,11.00
2023-03-02T19:04:07.891Z,12.00
2023-03-02T19:06:34.630Z,12.20
2023-03-02T19:09:01.372Z,11.23
2023-03-02T19:11:29.809Z,12.18
2023-03-02T19:13:56.975Z,10.88
2023-03-02T19:16:23.941Z,11.70
2023-03-02T19:18:50.726Z,10.32
2023-03-02T19:21:17.521Z,11.88
2023-03-02T19:23:46.236Z,11.23
2023-03-02T19:26:13.667Z,11.55
2023-03-02T19:28:40.867Z,11.18
2023-03-02T19:31:08.936Z,11.30
2023-03-02T19:33:36.611Z,10.77
2023-03-02T19:36:04.412Z,10.82
2023-03-02T19:38:31.242Z,11.02
2023-03-02T19:40:58.992Z,11.32
2023-03-02T19:43:26.569Z,11.00
2023-03-02T19:45:53.714Z,10.73
2023-03-02T19:48:20.702Z,10.63
2023-03-02T19:50:47.581Z,9.90
2023-03-02T19:53:14.384Z,10.73
2023-03-02T19:55:42.919Z,10.60
2023-03-02T19:58:11.241Z,10.35
2023-03-02T20:00:38.884Z,12.13
2023-03-02T20:03:08.600Z,11.25
2023-03-02T20:05:36.288Z,10.70
2023-03-02T20:08:03.060Z,11.77
2023-03-02T20:10:34.770Z,11.52
2023-03-02T20:13:01.671Z,11.73
2023-03-02T20:15:30.006Z,11.02
2023-03-02T20:17:58.400Z,11.63
2023-03-02T20:20:27.707Z,11.30
2023-03-02T20:22:54.462Z,11.60
2023-03-02T20:25:21.735Z,11.48
2023-03-02T20:27:49.211Z,10.85
2023-03-02T20:30:17.681Z,12.25
2023-03-02T20:32:44.604Z,12.07
2023-03-02T20:35:11.545Z,11.25
2023-03-02T20:37:38.402Z,12.65
2023-03-02T20:40:09.058Z,12.18
2023-03-02T20:42:36.187Z,11.82
2023-03-02T20:45:03.598Z,12.43
2023-03-02T20:47:31.312Z,12.43
2023-03-02T20:49:58.146Z,12.32
2023-03-02T20:52:24.898Z,12.05
2023-03-02T20:54:51.856Z,12.95
2023-03-02T20:57:19.574Z,13.30
2023-03-02T20:59:46.721Z,12.15
2023-03-02T21:02:15.822Z,13.35
2023-03-02T21:04:42.839Z,12.73
2023-03-02T21:07:09.794Z,13.15
2023-03-02T21:09:36.747Z,12.98
2023-03-02T21:12:04.741Z,14.13
2023-03-02T21:14:33.239Z,12.98
2023-03-02T21:17:01.075Z,12.93
2023-03-02T21:19:29.676Z,13.48
2023-03-02T21:21:57.571Z,13.80
2023-03-02T21:24:24.574Z,13.02
2023-03-02T21:26:52.721Z,12.65
2023-03-02T21:29:20.822Z,12.35
2023-03-02T21:31:48.008Z,12.65
2023-03-02T21:34:15.780Z,13.13
2023-03-02T21:36:42.924Z,13.43
2023-03-02T21:39:12.930Z,13.20
2023-03-02T21:41:40.684Z,12.60
2023-03-02T21:44:07.555Z,13.10
2023-03-02T21:46:35.604Z,12.77
2023-03-02T21:49:02.602Z,12.88
2023-03-02T21:51:29.419Z,15.65
2023-03-02T21:53:56.421Z,13.85
2023-03-02T21:56:24.101Z,14.02
2023-03-02T21:58:51.738Z,14.68
2023-03-02T22:01:19.163Z,14.55
2023-03-02T22:03:45.925Z,14.27
2023-03-02T22:06:17.056Z,14.98
2023-03-02T22:08:43.975Z,15.48
2023-03-02T22:11:12.674Z,16.05
2023-03-02T22:13:39.652Z,15.52
2023-03-02T22:16:09.644Z,15.85
2023-03-02T22:18:36.944Z,16.67
2023-03-02T22:21:17.811Z,17.40
2023-03-02T22:23:44.818Z,16.20
2023-03-02T22:26:15.791Z,17.35
2023-03-02T22:28:43.019Z,17.63
2023-03-02T22:31:20.161Z,17.50
2023-03-02T22:33:47.303Z,17.05
2023-03-02T22:36:20.294Z,19.27
2023-03-02T22:38:47.363Z,16.83
2023-03-02T22:41:16.520Z,18.17
2023-03-02T22:43:43.665Z,19.05
2023-03-02T22:46:15.414Z,18.30
2023-03-02T22:48:44.842Z,18.38
2023-03-02T22:51:19.125Z,18.50
2023-03-02T22:53:50.465Z,19.08
2023-03-02T22:56:24.526Z,18.85
2023-03-02T22:58:53.354Z,18.92
2023-03-02T23:01:22.060Z,19.30
2023-03-02T23:03:50.493Z,18.80
2023-03-02T23:06:20.755Z,20.55
2023-03-02T23:08:47.601Z,19.13
2023-03-02T23:11:16.684Z,19.73
2023-03-02T23:13:43.940Z,19.58
2023-03-02T23:16:13.866Z,21.90
2023-03-02T23:18:43.063Z,20.75
2023-03-02T23:21:15.515Z,20.42
2023-03-02T23:23:45.632Z,21.40
2023-03-02T23:26:12.758Z,21.40
2023-03-02T23:28:39.633Z,19.95
2023-03-02T23:31:06.446Z,19.70
2023-03-02T23:33:33.630Z,21.00
2023-03-02T23:36:00.841Z,20.17
2023-03-02T23:38:27.892Z,21.08
2023-03-02T23:40:55.253Z,19.52
2023-03-02T23:43:22.266Z,21.70
2023-03-02T23:45:49.089Z,22.75
2023-03-02T23:48:16.517Z,19.77
2023-03-02T23:50:44.583Z,21.45
2023-03-02T23:53:11.343Z,21.13
2023-03-02T23:55:40.707Z,22.13
2023-03-02T23:58:07.860Z,21.93
